createdAt,value
2018-07-16T00:00:53.396Z,63.70
2018-07-16T00:03:21.702Z,63.90
2018-07-16T00:05:49.986Z,64.20
2018-07-16T00:08:18.295Z,64.40
2018-07-16T00:10:46.592Z,64.40
2018-07-16T00:13:14.902Z,64.70
2018-07-16T00:15:43.192Z,65.10
2018-07-16T00:18:11.497Z,65.60
2018-07-16T00:20:39.786Z,65.60
2018-07-16T00:23:08.085Z,65.60
2018-07-16T00:25:36.373Z,65.50
2018-07-16T00:28:04.686Z,65.30
2018-07-16T00:30:32.974Z,65.30
2018-07-16T00:33:01.291Z,65.30
2018-07-16T00:35:29.578Z,65.30
2018-07-16T00:37:57.894Z,65.30
2018-07-16T00:40:26.182Z,65.60
2018-07-16T00:42:54.550Z,66.30
2018-07-16T00:45:22.814Z,66.60
2018-07-16T00:47:51.135Z,66.90
2018-07-16T00:50:19.429Z,66.90
2018-07-16T00:52:47.745Z,67.30
2018-07-16T00:55:16.047Z,67.20
2018-07-16T00:57:44.350Z,67.00
2018-07-16T01:00:12.634Z,67.50
2018-07-16T01:02:40.963Z,67.20
2018-07-16T01:05:09.255Z,67.20
2018-07-16T01:07:37.542Z,67.20
2018-07-16T01:10:05.858Z,67.10
2018-07-16T01:12:34.154Z,67.20
2018-07-16T01:15:02.479Z,68.10
2018-07-16T01:17:30.770Z,67.20
2018-07-16T01:19:59.085Z,67.20
2018-07-16T01:22:27.380Z,66.90
2018-07-16T01:24:55.698Z,67.00
2018-07-16T01:27:23.988Z,67.40
2018-07-16T01:29:52.298Z,69.20
2018-07-16T01:32:20.590Z,68.70
2018-07-16T01:34:48.896Z,68.80
2018-07-16T01:37:17.194Z,69.20
2018-07-16T01:39:45.503Z,68.90
2018-07-16T01:42:13.801Z,68.70
2018-07-16T01:44:42.115Z,69.60
2018-07-16T01:47:09.646Z,68.70
2018-07-16T01:49:37.969Z,68.90
2018-07-16T01:52:06.262Z,69.00
2018-07-16T01:54:34.573Z,69.20
2018-07-16T01:57:02.867Z,69.10
2018-07-16T01:59:31.185Z,69.00
2018-07-16T02:01:59.478Z,69.40
2018-07-16T02:04:27.793Z,69.50
2018-07-16T02:06:56.086Z,69.50
2018-07-16T02:09:24.406Z,70.00
2018-07-16T02:11:52.697Z,70.20
2018-07-16T02:14:21.014Z,70.30
2018-07-16T02:16:49.306Z,70.20
2018-07-16T02:19:17.622Z,70.30
2018-07-16T02:21:45.910Z,70.70
2018-07-16T02:24:14.226Z,71.90
2018-07-16T02:26:42.517Z,71.30
2018-07-16T02:29:10.830Z,71.10
2018-07-16T02:31:39.122Z,71.10
2018-07-16T02:34:07.426Z,71.40
2018-07-16T02:36:35.712Z,71.60
2018-07-16T02:39:04.029Z,71.60
2018-07-16T02:41:32.327Z,71.60
2018-07-16T02:44:00.631Z,71.80
2018-07-16T02:46:28.922Z,72.10
2018-07-16T02:48:57.314Z,71.90
2018-07-16T02:51:25.605Z,72.00
2018-07-16T02:53:53.913Z,72.10
2018-07-16T02:56:22.216Z,72.40
2018-07-16T02:58:50.522Z,72.90
2018-07-16T03:01:18.815Z,73.40
2018-07-16T03:03:47.101Z,73.70
2018-07-16T03:06:15.419Z,72.80
2018-07-16T03:08:43.703Z,73.30
2018-07-16T03:11:12.014Z,73.40
2018-07-16T03:13:40.307Z,73.70
2018-07-16T03:16:08.618Z,73.80
2018-07-16T03:18:36.141Z,73.80
2018-07-16T03:21:04.454Z,73.80
2018-07-16T03:23:32.748Z,73.60
2018-07-16T03:26:01.073Z,73.40
2018-07-16T03:28:29.362Z,73.70
2018-07-16T03:30:57.678Z,74.00
2018-07-16T03:33:25.967Z,74.00
2018-07-16T03:35:54.279Z,74.40
2018-07-16T03:38:22.569Z,74.80
2018-07-16T03:40:50.883Z,75.10
2018-07-16T03:43:19.170Z,75.10
2018-07-16T03:45:47.485Z,74.80
2018-07-16T03:48:15.771Z,74.70
2018-07-16T03:50:44.086Z,74.50
2018-07-16T03:53:12.369Z,74.50
2018-07-16T03:55:40.744Z,74.50
2018-07-16T03:58:08.986Z,74.30
2018-07-16T04:00:37.299Z,74.30
2018-07-16T04:03:05.591Z,74.30
2018-07-16T04:05:33.899Z,74.40
2018-07-16T04:08:02.186Z,75.10
2018-07-16T04:10:30.502Z,74.30
2018-07-16T04:12:58.789Z,74.20
2018-07-16T04:15:27.121Z,74.00
2018-07-16T04:17:55.446Z,74.80
2018-07-16T04:20:23.753Z,73.80
2018-07-16T04:22:52.053Z,73.40
2018-07-16T04:25:20.476Z,73.10
2018-07-16T04:27:48.770Z,72.70
2018-07-16T04:30:17.074Z,72.40
2018-07-16T04:32:45.362Z,72.00
2018-07-16T04:35:13.674Z,71.60
2018-07-16T04:37:41.953Z,71.30
2018-07-16T04:40:10.282Z,70.80
2018-07-16T04:42:38.569Z,70.60
2018-07-16T04:45:06.889Z,70.40
2018-07-16T04:47:35.169Z,70.50
2018-07-16T04:50:03.454Z,69.80
2018-07-16T04:52:31.761Z,67.20
2018-07-16T04:55:00.055Z,64.60
2018-07-16T04:57:28.362Z,62.40
2018-07-16T04:59:56.642Z,60.20
2018-07-16T05:02:24.946Z,59.00
2018-07-16T05:04:53.235Z,58.00
2018-07-16T05:07:21.539Z,57.10
2018-07-16T05:09:49.823Z,56.20
2018-07-16T05:12:18.131Z,55.30
2018-07-16T05:14:46.424Z,55.20
2018-07-16T05:17:14.726Z,54.60
2018-07-16T05:19:43.005Z,54.10
2018-07-16T05:22:11.315Z,54.00
2018-07-16T05:24:39.605Z,54.60
2018-07-16T05:27:07.906Z,55.30
2018-07-16T05:29:36.189Z,56.20
2018-07-16T05:32:04.597Z,57.00
2018-07-16T05:34:32.810Z,57.50
2018-07-16T05:37:01.119Z,57.90
2018-07-16T05:39:29.410Z,58.10
2018-07-16T05:41:57.710Z,58.30
2018-07-16T05:44:25.994Z,58.70
2018-07-16T05:46:54.302Z,58.90
2018-07-16T05:49:22.585Z,59.00
2018-07-16T05:51:50.888Z,58.80
2018-07-16T05:54:19.177Z,58.60
2018-07-16T05:56:47.481Z,58.60
2018-07-16T05:59:15.769Z,58.50
2018-07-16T06:01:44.077Z,58.40
2018-07-16T06:04:12.361Z,58.40
2018-07-16T06:06:40.666Z,58.40
2018-07-16T06:09:08.949Z,58.20
2018-07-16T06:11:37.254Z,58.20
2018-07-16T06:14:05.541Z,58.10
2018-07-16T06:16:33.829Z,57.90
2018-07-16T06:19:02.139Z,57.60
2018-07-16T06:21:30.423Z,57.30
2018-07-16T06:23:58.777Z,56.90
2018-07-16T06:26:27.033Z,56.60
2018-07-16T06:28:55.349Z,56.20
2018-07-16T06:31:23.637Z,55.90
2018-07-16T06:33:51.947Z,55.70
2018-07-16T06:36:20.239Z,55.40
2018-07-16T06:38:48.564Z,55.30
2018-07-16T06:41:17.007Z,55.10
2018-07-16T06:43:45.177Z,55.20
2018-07-16T06:46:13.465Z,54.40
2018-07-16T06:48:41.775Z,54.00
2018-07-16T06:51:10.070Z,53.80
2018-07-16T06:53:38.380Z,53.70
2018-07-16T06:56:06.670Z,53.60
2018-07-16T06:58:34.974Z,53.40
2018-07-16T07:01:03.262Z,53.00
2018-07-16T07:03:31.578Z,52.60
2018-07-16T07:05:59.866Z,53.00
2018-07-16T07:08:28.185Z,52.10
2018-07-16T07:10:56.477Z,51.60
2018-07-16T07:13:24.790Z,51.30
2018-07-16T07:15:53.082Z,51.10
2018-07-16T07:18:21.399Z,50.20
2018-07-16T07:20:49.694Z,50.10
2018-07-16T07:23:18.012Z,49.50
2018-07-16T07:25:46.298Z,49.30
2018-07-16T07:28:14.610Z,48.10
2018-07-16T07:30:42.898Z,47.30
2018-07-16T07:33:11.209Z,46.10
2018-07-16T07:35:39.529Z,45.70
2018-07-16T07:38:07.827Z,45.50
2018-07-16T07:40:36.116Z,45.10
2018-07-16T07:43:04.418Z,44.80
2018-07-16T07:45:32.705Z,44.20
2018-07-16T07:48:01.009Z,42.70
2018-07-16T07:50:29.298Z,42.30
2018-07-16T07:52:57.621Z,41.70
2018-07-16T07:55:26.442Z,41.50
2018-07-16T07:57:54.237Z,42.20
2018-07-16T08:00:22.532Z,40.80
2018-07-16T08:02:50.842Z,40.60
2018-07-16T08:05:19.138Z,39.90
2018-07-16T08:07:47.442Z,38.30
2018-07-16T08:10:15.741Z,37.80
2018-07-16T08:12:44.061Z,37.40
2018-07-16T08:15:12.362Z,37.30
2018-07-16T08:17:40.677Z,37.70
2018-07-16T08:20:09.008Z,36.10
2018-07-16T08:22:37.310Z,35.90
2018-07-16T08:25:05.638Z,35.90
2018-07-16T08:27:33.174Z,35.80
2018-07-16T08:30:01.506Z,35.80
2018-07-16T08:32:29.821Z,34.60
2018-07-16T08:34:58.137Z,35.70
2018-07-16T08:37:26.442Z,35.30
2018-07-16T08:39:54.758Z,35.00
2018-07-16T08:42:23.058Z,35.10
2018-07-16T08:44:51.378Z,34.10
2018-07-16T08:47:19.698Z,32.90
2018-07-16T08:49:48.026Z,33.60
2018-07-16T08:52:16.388Z,32.20
2018-07-16T08:54:44.728Z,31.60
2018-07-16T08:57:13.027Z,30.90
2018-07-16T08:59:41.334Z,30.60
2018-07-16T09:02:09.629Z,31.10
2018-07-16T09:04:37.934Z,30.90
2018-07-16T09:07:06.251Z,30.10
2018-07-16T09:09:34.557Z,29.10
2018-07-16T09:12:02.847Z,29.20
2018-07-16T09:14:31.162Z,29.30
2018-07-16T09:16:59.511Z,29.50
2018-07-16T09:19:27.801Z,29.30
2018-07-16T09:21:56.094Z,28.90
2018-07-16T09:24:24.418Z,29.10
2018-07-16T09:26:51.952Z,29.10
2018-07-16T09:29:20.266Z,29.20
2018-07-16T09:31:48.569Z,28.80
2018-07-16T09:34:16.886Z,28.30
2018-07-16T09:36:45.178Z,27.00
2018-07-16T09:39:13.491Z,26.90
2018-07-16T09:41:41.875Z,27.60
2018-07-16T09:44:10.149Z,27.00
2018-07-16T09:46:38.434Z,27.20
2018-07-16T09:49:06.745Z,27.20
2018-07-16T09:51:35.039Z,27.50
2018-07-16T09:54:02.603Z,27.40
2018-07-16T09:56:30.950Z,25.70
2018-07-16T09:58:59.253Z,25.40
2018-07-16T10:01:27.544Z,25.30
2018-07-16T10:03:55.093Z,25.30
2018-07-16T10:06:23.388Z,25.60
2018-07-16T10:08:51.709Z,25.50
2018-07-16T10:11:20.007Z,25.20
2018-07-16T10:13:48.298Z,25.70
2018-07-16T10:16:16.618Z,25.50
2018-07-16T10:18:44.915Z,24.50
2018-07-16T10:21:13.227Z,25.10
2018-07-16T10:23:41.519Z,25.10
2018-07-16T10:26:09.845Z,25.50
2018-07-16T10:28:38.143Z,25.10
2018-07-16T10:31:06.455Z,24.80
2018-07-16T10:33:34.741Z,25.40
2018-07-16T10:36:03.075Z,25.20
2018-07-16T10:38:30.619Z,25.20
2018-07-16T10:40:59.028Z,24.80
2018-07-16T10:43:27.513Z,23.90
2018-07-16T10:45:55.838Z,24.10
2018-07-16T10:48:24.140Z,24.10
2018-07-16T10:50:52.461Z,25.20
2018-07-16T10:53:20.754Z,24.30
2018-07-16T10:55:49.077Z,24.80
2018-07-16T10:58:17.370Z,24.50
2018-07-16T11:00:45.687Z,24.80
2018-07-16T11:03:13.985Z,24.80
2018-07-16T11:05:42.307Z,25.20
2018-07-16T11:08:10.610Z,24.20
2018-07-16T11:10:38.925Z,24.50
2018-07-16T11:13:07.221Z,25.40
2018-07-16T11:15:35.528Z,25.40
2018-07-16T11:18:03.826Z,25.20
2018-07-16T11:20:32.146Z,25.20
2018-07-16T11:22:59.673Z,25.20
2018-07-16T11:25:27.992Z,24.70
2018-07-16T11:27:56.291Z,23.50
2018-07-16T11:30:24.601Z,23.20
2018-07-16T11:32:52.894Z,23.40
2018-07-16T11:35:21.242Z,23.70
2018-07-16T11:37:49.509Z,23.90
2018-07-16T11:40:17.828Z,23.60
2018-07-16T11:42:46.130Z,24.10
2018-07-16T11:45:14.453Z,23.70
2018-07-16T11:47:42.889Z,23.90
2018-07-16T11:50:11.203Z,23.80
2018-07-16T11:52:39.498Z,24.30
2018-07-16T11:55:07.807Z,22.90
2018-07-16T11:57:36.111Z,23.30
2018-07-16T12:00:04.427Z,24.50
2018-07-16T12:02:32.710Z,24.90
2018-07-16T12:05:01.016Z,23.60
2018-07-16T12:07:29.310Z,24.20
2018-07-16T12:09:57.594Z,25.10
2018-07-16T12:12:26.025Z,23.40
2018-07-16T12:14:54.207Z,23.30
2018-07-16T12:17:22.522Z,24.00
2018-07-16T12:19:50.811Z,23.90
2018-07-16T12:22:19.138Z,23.90
2018-07-16T12:24:47.434Z,24.50
2018-07-16T12:27:15.749Z,23.80
2018-07-16T12:29:44.042Z,23.90
2018-07-16T12:32:12.363Z,23.60
2018-07-16T12:34:39.877Z,23.30
2018-07-16T12:37:08.182Z,23.60
2018-07-16T12:39:36.474Z,23.40
2018-07-16T12:42:04.778Z,23.70
2018-07-16T12:44:33.073Z,23.30
2018-07-16T12:47:01.505Z,23.10
2018-07-16T12:49:29.713Z,22.40
2018-07-16T12:51:58.037Z,22.60
2018-07-16T12:54:26.322Z,22.20
2018-07-16T12:56:54.642Z,21.90
2018-07-16T12:59:22.933Z,22.40
2018-07-16T13:01:51.242Z,22.60
2018-07-16T13:04:19.529Z,22.90
2018-07-16T13:06:47.842Z,22.60
2018-07-16T13:09:16.128Z,22.70
2018-07-16T13:11:44.446Z,23.20
2018-07-16T13:14:11.977Z,23.20
2018-07-16T13:16:40.287Z,22.10
2018-07-16T13:19:08.584Z,23.20
2018-07-16T13:21:36.891Z,22.70
2018-07-16T13:24:05.186Z,23.10
2018-07-16T13:26:33.499Z,22.90
2018-07-16T13:29:01.799Z,21.60
2018-07-16T13:31:30.130Z,21.30
2018-07-16T13:33:58.430Z,21.00
2018-07-16T13:36:26.738Z,21.00
2018-07-16T13:38:55.038Z,21.90
2018-07-16T13:41:23.350Z,22.10
2018-07-16T13:43:51.644Z,22.40
2018-07-16T13:46:19.954Z,22.10
2018-07-16T13:48:48.255Z,21.70
2018-07-16T13:51:16.567Z,21.20
2018-07-16T13:53:44.861Z,21.60
2018-07-16T13:56:13.179Z,21.10
2018-07-16T13:58:41.472Z,21.20
2018-07-16T14:01:09.789Z,22.20
2018-07-16T14:03:38.106Z,21.80
2018-07-16T14:06:06.397Z,21.70
2018-07-16T14:08:34.719Z,21.20
2018-07-16T14:11:03.016Z,21.10
2018-07-16T14:13:30.566Z,21.10
2018-07-16T14:15:58.855Z,23.10
2018-07-16T14:18:27.167Z,22.40
2018-07-16T14:20:55.470Z,21.90
2018-07-16T14:23:23.850Z,22.60
2018-07-16T14:25:51.338Z,22.50
2018-07-16T14:28:18.891Z,22.40
2018-07-16T14:30:47.188Z,22.00
2018-07-16T14:33:15.497Z,21.20
2018-07-16T14:35:43.790Z,22.10
2018-07-16T14:38:12.155Z,21.90
2018-07-16T14:40:40.414Z,21.80
2018-07-16T14:43:08.741Z,20.60
2018-07-16T14:45:37.035Z,20.20
2018-07-16T14:48:05.342Z,20.20
2018-07-16T14:50:33.720Z,19.90
2018-07-16T14:53:01.196Z,19.80
2018-07-16T14:55:29.487Z,19.20
2018-07-16T14:57:57.803Z,19.30
2018-07-16T15:00:26.091Z,19.30
2018-07-16T15:02:54.394Z,20.20
2018-07-16T15:05:22.693Z,20.60
2018-07-16T15:07:51.015Z,20.60
2018-07-16T15:10:19.618Z,20.80
2018-07-16T15:12:47.929Z,20.10
2018-07-16T15:15:16.223Z,20.90
2018-07-16T15:17:44.543Z,20.60
2018-07-16T15:20:12.913Z,21.10
2018-07-16T15:22:41.166Z,20.90
2018-07-16T15:25:09.467Z,21.50
2018-07-16T15:27:37.769Z,22.50
2018-07-16T15:30:06.063Z,22.30
2018-07-16T15:32:34.379Z,21.90
2018-07-16T15:35:02.667Z,21.10
2018-07-16T15:37:30.970Z,22.00
2018-07-16T15:39:58.498Z,22.00
2018-07-16T15:42:26.814Z,21.40
2018-07-16T15:44:55.164Z,21.70
2018-07-16T15:47:23.458Z,22.40
2018-07-16T15:49:51.749Z,22.80
2018-07-16T15:52:20.067Z,22.80
2018-07-16T15:54:48.359Z,23.20
2018-07-16T15:57:16.665Z,22.40
2018-07-16T15:59:44.950Z,22.60
2018-07-16T16:02:13.241Z,22.20
2018-07-16T16:04:41.564Z,21.90
2018-07-16T16:07:09.857Z,22.00
2018-07-16T16:09:38.171Z,21.70
2018-07-16T16:12:06.463Z,21.10
2018-07-16T16:14:34.776Z,21.30
2018-07-16T16:17:03.070Z,21.40
2018-07-16T16:19:31.384Z,21.50
2018-07-16T16:21:59.674Z,22.50
2018-07-16T16:24:27.986Z,22.10
2018-07-16T16:26:55.506Z,22.00
2018-07-16T16:29:23.818Z,22.10
2018-07-16T16:31:52.110Z,22.60
2018-07-16T16:34:20.421Z,22.00
2018-07-16T16:36:48.719Z,22.20
2018-07-16T16:39:17.029Z,22.40
2018-07-16T16:41:45.324Z,22.90
2018-07-16T16:44:13.637Z,22.70
2018-07-16T16:46:41.935Z,22.30
2018-07-16T16:49:10.330Z,21.80
2018-07-16T16:51:38.541Z,22.70
2018-07-16T16:54:06.853Z,22.70
2018-07-16T16:56:35.160Z,23.50
2018-07-16T16:59:03.476Z,23.00
2018-07-16T17:01:31.761Z,22.70
2018-07-16T17:04:00.079Z,23.30
2018-07-16T17:06:28.369Z,22.60
2018-07-16T17:08:56.679Z,22.20
2018-07-16T17:11:24.966Z,22.20
2018-07-16T17:13:52.510Z,22.10
2018-07-16T17:16:20.793Z,19.70
2018-07-16T17:18:48.348Z,19.70
2018-07-16T17:21:16.638Z,19.10
2018-07-16T17:23:45.028Z,18.00
2018-07-16T17:26:13.278Z,17.80
2018-07-16T17:28:41.586Z,17.50
2018-07-16T17:31:09.877Z,17.60
2018-07-16T17:33:38.194Z,17.30
2018-07-16T17:36:06.487Z,16.90
2018-07-16T17:38:34.034Z,16.90
2018-07-16T17:41:02.328Z,16.70
2018-07-16T17:43:30.649Z,16.60
2018-07-16T17:45:59.001Z,16.80
2018-07-16T17:48:27.262Z,16.40
2018-07-16T17:50:55.553Z,16.10
2018-07-16T17:53:23.915Z,16.40
2018-07-16T17:55:52.260Z,16.70
2018-07-16T17:58:19.755Z,16.60
2018-07-16T18:00:48.084Z,16.40
2018-07-16T18:03:16.382Z,17.00
2018-07-16T18:05:44.751Z,16.50
2018-07-16T18:08:13.050Z,16.40
2018-07-16T18:10:41.378Z,16.30
2018-07-16T18:13:09.722Z,16.40
2018-07-16T18:15:38.002Z,16.30
2018-07-16T18:18:06.295Z,16.20
2018-07-16T18:20:34.602Z,16.40
2018-07-16T18:23:02.125Z,16.40
2018-07-16T18:25:30.443Z,16.70
2018-07-16T18:27:58.736Z,16.70
2018-07-16T18:30:27.062Z,17.30
2018-07-16T18:32:54.590Z,17.30
2018-07-16T18:35:22.927Z,18.00
2018-07-16T18:37:51.223Z,17.70
2018-07-16T18:40:18.801Z,17.70
2018-07-16T18:42:47.229Z,19.10
2018-07-16T18:45:15.577Z,19.50
2018-07-16T18:47:44.055Z,20.60
2018-07-16T18:50:12.375Z,22.10
2018-07-16T18:52:40.669Z,22.90
2018-07-16T18:55:08.990Z,23.70
2018-07-16T18:57:37.279Z,24.40
2018-07-16T19:00:05.630Z,25.30
2018-07-16T19:02:33.946Z,26.00
2018-07-16T19:05:02.255Z,26.50
2018-07-16T19:07:30.543Z,27.00
2018-07-16T19:09:58.850Z,27.80
2018-07-16T19:12:27.138Z,28.40
2018-07-16T19:14:55.454Z,29.10
2018-07-16T19:17:23.746Z,29.60
2018-07-16T19:19:52.083Z,30.20
2018-07-16T19:22:20.382Z,31.20
2018-07-16T19:24:48.734Z,32.10
2018-07-16T19:27:17.033Z,32.50
2018-07-16T19:29:45.355Z,32.70
2018-07-16T19:32:13.661Z,33.10
2018-07-16T19:34:41.987Z,33.70
2018-07-16T19:37:09.514Z,33.70
2018-07-16T19:39:37.836Z,34.60
2018-07-16T19:42:06.121Z,34.90
2018-07-16T19:44:34.429Z,35.60
2018-07-16T19:47:01.952Z,35.60
2018-07-16T19:49:29.506Z,36.10
2018-07-16T19:51:57.822Z,36.90
2018-07-16T19:54:26.115Z,37.40
2018-07-16T19:56:54.500Z,37.90
2018-07-16T19:59:22.767Z,38.40
2018-07-16T20:01:51.085Z,38.80
2018-07-16T20:04:19.382Z,39.20
2018-07-16T20:06:47.714Z,39.80
2018-07-16T20:09:15.290Z,39.80
2018-07-16T20:11:43.566Z,40.80
2018-07-16T20:14:11.858Z,41.10
2018-07-16T20:16:40.166Z,41.60
2018-07-16T20:19:08.481Z,42.70
2018-07-16T20:21:36.800Z,43.40
2018-07-16T20:24:05.102Z,43.60
2018-07-16T20:26:33.414Z,43.70
2018-07-16T20:29:01.697Z,44.10
2018-07-16T20:31:30.001Z,44.20
2018-07-16T20:33:58.302Z,44.60
2018-07-16T20:36:26.620Z,45.00
2018-07-16T20:38:54.910Z,45.20
2018-07-16T20:41:23.218Z,45.00
2018-07-16T20:43:51.510Z,45.30
2018-07-16T20:46:19.818Z,45.60
2018-07-16T20:48:48.102Z,46.20
2018-07-16T20:51:16.418Z,47.10
2018-07-16T20:53:44.705Z,47.50
2018-07-16T20:56:13.016Z,47.70
2018-07-16T20:58:41.315Z,47.80
2018-07-16T21:01:09.662Z,47.70
2018-07-16T21:03:37.961Z,47.60
2018-07-16T21:06:06.274Z,47.70
2018-07-16T21:08:34.621Z,48.40
2018-07-16T21:11:02.887Z,48.40
2018-07-16T21:13:31.173Z,48.60
2018-07-16T21:15:59.486Z,48.70
2018-07-16T21:18:27.773Z,48.90
2018-07-16T21:20:56.116Z,49.00
2018-07-16T21:23:24.393Z,49.00
2018-07-16T21:25:52.707Z,49.20
2018-07-16T21:28:20.996Z,49.40
2018-07-16T21:30:49.306Z,49.70
2018-07-16T21:33:17.594Z,50.00
2018-07-16T21:35:45.906Z,50.40
2018-07-16T21:38:14.189Z,50.70
2018-07-16T21:40:42.616Z,50.40
2018-07-16T21:43:10.802Z,50.40
2018-07-16T21:45:39.114Z,50.40
2018-07-16T21:48:07.394Z,50.40
2018-07-16T21:50:35.698Z,50.60
2018-07-16T21:53:04.001Z,50.70
2018-07-16T21:55:32.291Z,51.00
2018-07-16T21:58:00.619Z,51.00
2018-07-16T22:00:28.912Z,51.10
2018-07-16T22:02:57.225Z,50.90
2018-07-16T22:05:25.515Z,50.90
2018-07-16T22:07:53.823Z,51.20
2018-07-16T22:10:22.113Z,51.30
2018-07-16T22:12:50.426Z,51.40
2018-07-16T22:15:18.723Z,52.00
2018-07-16T22:17:47.030Z,52.00
2018-07-16T22:20:15.323Z,52.10
2018-07-16T22:22:43.757Z,52.20
2018-07-16T22:25:12.084Z,51.80
2018-07-16T22:27:40.442Z,51.60
2018-07-16T22:30:08.685Z,51.80
2018-07-16T22:32:36.993Z,52.00
2018-07-16T22:35:05.277Z,51.70
2018-07-16T22:37:33.583Z,51.70
2018-07-16T22:40:01.870Z,51.80
2018-07-16T22:42:30.186Z,51.90
2018-07-16T22:44:58.478Z,52.10
2018-07-16T22:47:26.795Z,52.40
2018-07-16T22:49:55.094Z,52.30
2018-07-16T22:52:23.406Z,53.10
2018-07-16T22:54:50.929Z,53.00
2018-07-16T22:57:19.229Z,53.10
2018-07-16T22:59:47.521Z,53.20
2018-07-16T23:02:15.838Z,52.80
2018-07-16T23:04:44.130Z,52.40
2018-07-16T23:07:12.446Z,52.10
2018-07-16T23:09:40.734Z,52.30
2018-07-16T23:12:09.049Z,52.40
2018-07-16T23:14:36.574Z,52.40
2018-07-16T23:17:04.943Z,53.10
2018-07-16T23:19:33.204Z,53.30
2018-07-16T23:22:01.522Z,52.80
2018-07-16T23:24:29.815Z,52.60
2018-07-16T23:26:58.127Z,52.30
2018-07-16T23:29:26.414Z,52.00
2018-07-16T23:31:54.726Z,52.40
2018-07-16T23:34:23.014Z,52.70
2018-07-16T23:36:51.326Z,52.80
2018-07-16T23:39:19.617Z,52.90
2018-07-16T23:41:47.930Z,53.00
2018-07-16T23:44:16.226Z,53.10
2018-07-16T23:46:44.531Z,53.40
2018-07-16T23:49:12.837Z,54.00
2018-07-16T23:51:41.125Z,54.30
2018-07-16T23:54:08.667Z,54.30
2018-07-16T23:56:36.949Z,54.20
2018-07-16T23:59:05.266Z,54.30
